createdAt,value
2022-08-22T00:02:26.736Z,18.94
2022-08-22T00:02:46.653Z,19.13
2022-08-22T00:02:53.143Z,21.02
2022-08-22T00:02:55.811Z,18.95
2022-08-22T00:05:05.122Z,18.96
2022-08-22T00:07:46.398Z,18.90
2022-08-22T00:10:25.616Z,18.88
2022-08-22T00:13:04.758Z,18.80
2022-08-22T00:15:43.533Z,18.82
2022-08-22T00:18:17.081Z,18.81
2022-08-22T00:20:51.007Z,18.80
2022-08-22T00:23:29.121Z,18.83
2022-08-22T00:26:05.411Z,18.87
2022-08-22T00:28:41.811Z,18.83
2022-08-22T00:31:21.307Z,18.75
2022-08-22T00:33:55.232Z,18.72
2022-08-22T00:36:34.008Z,18.78
2022-08-22T00:39:13.435Z,18.82
2022-08-22T00:42:31.386Z,18.76
2022-08-22T00:45:43.328Z,18.76
2022-08-22T00:48:37.626Z,18.65
2022-08-22T00:51:33.513Z,18.58
2022-08-22T00:54:17.639Z,18.55
2022-08-22T00:57:21.013Z,18.54
2022-08-22T01:00:07.129Z,18.60
2022-08-22T01:02:54.149Z,18.59
2022-08-22T01:05:52.139Z,18.60
2022-08-22T01:08:45.461Z,18.72
2022-08-22T01:11:34.489Z,18.72
2022-08-22T01:14:34.100Z,18.71
2022-08-22T01:17:28.954Z,18.74
2022-08-22T01:20:33.125Z,18.79
2022-08-22T01:23:55.963Z,18.84
2022-08-22T01:27:07.150Z,18.83
2022-08-22T01:30:16.480Z,18.63
2022-08-22T01:33:22.687Z,18.76
2022-08-22T01:36:17.092Z,18.65
2022-08-22T01:39:16.881Z,18.61
2022-08-22T01:42:13.321Z,18.56
2022-08-22T01:45:29.033Z,18.50
2022-08-22T01:48:06.864Z,18.50
2022-08-22T01:50:41.503Z,18.41
2022-08-22T01:53:23.838Z,18.37
2022-08-22T01:56:05.273Z,18.31
2022-08-22T01:58:37.731Z,18.23
2022-08-22T02:01:26.473Z,18.27
2022-08-22T02:04:05.565Z,18.22
2022-08-22T02:06:44.104Z,18.21
2022-08-22T02:09:30.997Z,18.15
2022-08-22T02:12:21.881Z,18.11
2022-08-22T02:14:59.589Z,18.16
2022-08-22T02:17:31.975Z,18.08
2022-08-22T02:20:11.355Z,18.12
2022-08-22T02:22:55.189Z,18.04
2022-08-22T02:25:32.294Z,18.15
2022-08-22T02:28:11.369Z,18.07
2022-08-22T02:30:49.697Z,18.06
2022-08-22T02:33:32.227Z,18.08
2022-08-22T02:36:11.440Z,18.10
2022-08-22T02:38:51.040Z,18.10
2022-08-22T02:41:30.918Z,18.07
2022-08-22T02:44:06.854Z,18.12
2022-08-22T02:46:49.110Z,18.15
2022-08-22T02:49:27.436Z,18.20
2022-08-22T02:52:10.117Z,18.28
2022-08-22T02:54:44.989Z,18.27
2022-08-22T02:57:20.947Z,18.30
2022-08-22T03:00:31.512Z,18.36
2022-08-22T03:03:06.990Z,18.32
2022-08-22T03:05:50.834Z,18.26
2022-08-22T03:08:26.461Z,18.29
2022-08-22T03:11:06.613Z,18.28
2022-08-22T03:13:54.716Z,18.37
2022-08-22T03:16:33.591Z,18.33
2022-08-22T03:19:13.209Z,18.30
2022-08-22T03:21:57.532Z,18.28
2022-08-22T03:24:35.171Z,18.22
2022-08-22T03:27:13.334Z,18.29
2022-08-22T03:30:03.907Z,18.40
2022-08-22T03:32:49.920Z,18.41
2022-08-22T03:35:27.907Z,18.43
2022-08-22T03:38:14.206Z,18.43
2022-08-22T03:41:11.622Z,18.46
2022-08-22T03:44:08.467Z,18.47
2022-08-22T03:47:08.592Z,18.48
2022-08-22T03:50:29.198Z,18.56
2022-08-22T03:53:22.742Z,18.53
2022-08-22T03:56:33.465Z,18.55
2022-08-22T03:59:27.151Z,18.61
2022-08-22T04:02:43.131Z,18.65
2022-08-22T04:05:58.806Z,18.69
2022-08-22T04:09:14.562Z,18.89
2022-08-22T04:12:18.669Z,19.05
2022-08-22T04:15:21.968Z,19.29
2022-08-22T04:18:25.997Z,19.41
2022-08-22T04:21:16.050Z,19.39
2022-08-22T04:24:14.873Z,19.65
2022-08-22T04:26:49.914Z,19.63
2022-08-22T04:29:24.975Z,19.75
2022-08-22T04:32:02.663Z,19.86
2022-08-22T04:34:39.646Z,19.97
2022-08-22T04:37:16.958Z,20.07
2022-08-22T04:39:53.312Z,19.94
2022-08-22T04:42:32.798Z,20.06
2022-08-22T04:45:08.476Z,20.20
2022-08-22T04:47:41.650Z,20.37
2022-08-22T04:50:20.787Z,20.54
2022-08-22T04:53:13.526Z,20.77
2022-08-22T04:55:53.049Z,20.96
2022-08-22T04:58:33.697Z,21.22
2022-08-22T05:01:15.045Z,21.57
2022-08-22T05:03:52.734Z,21.81
2022-08-22T05:06:28.189Z,21.97
2022-08-22T05:09:01.565Z,22.24
2022-08-22T05:11:32.447Z,22.36
2022-08-22T05:14:06.648Z,22.48
2022-08-22T05:16:39.333Z,22.63
2022-08-22T05:19:16.909Z,22.70
2022-08-22T05:21:51.334Z,22.89
2022-08-22T05:24:28.031Z,22.93
2022-08-22T05:27:01.634Z,22.86
2022-08-22T05:29:34.701Z,22.95
2022-08-22T05:32:09.717Z,23.10
2022-08-22T05:34:41.876Z,23.03
2022-08-22T05:37:15.990Z,23.17
2022-08-22T05:39:49.280Z,23.36
2022-08-22T05:42:25.152Z,23.67
2022-08-22T05:44:56.026Z,23.82
2022-08-22T05:47:29.465Z,23.83
2022-08-22T05:50:05.039Z,23.86
2022-08-22T05:53:03.066Z,23.96
2022-08-22T05:55:40.135Z,23.75
2022-08-22T05:58:39.198Z,23.76
2022-08-22T06:01:21.350Z,23.79
2022-08-22T06:04:00.900Z,23.87
2022-08-22T06:06:34.514Z,24.08
2022-08-22T06:09:13.916Z,24.01
2022-08-22T06:11:51.668Z,23.90
2022-08-22T06:14:33.357Z,23.88
2022-08-22T06:17:09.826Z,23.73
2022-08-22T06:19:43.143Z,23.55
2022-08-22T06:22:18.710Z,23.67
2022-08-22T06:24:52.592Z,23.92
2022-08-22T06:27:25.677Z,23.87
2022-08-22T06:29:59.347Z,23.99
2022-08-22T06:32:44.557Z,24.04
2022-08-22T06:35:25.906Z,24.12
2022-08-22T06:38:01.027Z,24.22
2022-08-22T06:40:32.518Z,24.33
2022-08-22T06:43:01.446Z,24.57
2022-08-22T06:45:33.960Z,24.22
2022-08-22T06:48:17.369Z,24.34
2022-08-22T06:50:50.720Z,24.34
2022-08-22T06:53:23.758Z,24.69
2022-08-22T06:55:58.306Z,25.02
2022-08-22T06:58:34.270Z,25.31
2022-08-22T07:01:11.390Z,25.27
2022-08-22T07:03:46.731Z,25.33
2022-08-22T07:06:17.536Z,25.38
2022-08-22T07:08:47.417Z,25.45
2022-08-22T07:11:25.898Z,25.45
2022-08-22T07:13:58.877Z,25.55
2022-08-22T07:16:33.348Z,25.71
2022-08-22T07:19:03.370Z,25.74
2022-08-22T07:21:43.749Z,25.58
2022-08-22T07:24:19.489Z,25.58
2022-08-22T07:27:05.507Z,25.64
2022-08-22T07:29:45.575Z,25.54
2022-08-22T07:32:21.086Z,25.58
2022-08-22T07:35:04.856Z,25.73
2022-08-22T07:37:52.692Z,25.92
2022-08-22T07:40:30.107Z,25.94
2022-08-22T07:43:09.861Z,25.80
2022-08-22T07:45:45.370Z,25.87
2022-08-22T07:48:25.811Z,26.00
2022-08-22T07:51:11.499Z,26.22
2022-08-22T07:53:45.125Z,26.32
2022-08-22T07:56:18.721Z,26.54
2022-08-22T07:58:55.010Z,26.72
2022-08-22T08:01:25.577Z,26.74
2022-08-22T08:03:59.558Z,26.62
2022-08-22T08:06:31.585Z,26.61
2022-08-22T08:09:01.428Z,26.58
2022-08-22T08:11:38.559Z,26.61
2022-08-22T08:14:13.722Z,26.66
2022-08-22T08:16:46.342Z,26.75
2022-08-22T08:19:19.293Z,26.80
2022-08-22T08:21:53.154Z,27.03
2022-08-22T08:24:27.325Z,27.16
2022-08-22T08:27:16.075Z,27.41
2022-08-22T08:29:54.925Z,27.71
2022-08-22T08:32:26.477Z,27.83
2022-08-22T08:34:56.797Z,27.46
2022-08-22T08:37:31.614Z,27.32
2022-08-22T08:40:04.482Z,27.35
2022-08-22T08:43:14.323Z,27.34
2022-08-22T08:46:08.302Z,27.29
2022-08-22T08:49:06.932Z,27.24
2022-08-22T08:51:52.808Z,27.08
2022-08-22T08:54:44.738Z,27.04
2022-08-22T08:57:22.584Z,27.05
2022-08-22T09:00:04.891Z,27.11
2022-08-22T09:02:51.989Z,27.25
2022-08-22T09:05:56.188Z,27.18
2022-08-22T09:09:01.104Z,27.17
2022-08-22T09:12:01.189Z,27.19
2022-08-22T09:14:50.481Z,27.27
2022-08-22T09:17:41.049Z,27.35
2022-08-22T09:20:36.315Z,27.60
2022-08-22T09:23:37.372Z,27.87
2022-08-22T09:26:17.591Z,28.09
2022-08-22T09:28:55.666Z,28.34
2022-08-22T09:31:48.155Z,28.47
2022-08-22T09:34:28.451Z,28.36
2022-08-22T09:37:14.394Z,28.42
2022-08-22T09:39:52.886Z,28.33
2022-08-22T09:42:32.776Z,28.46
2022-08-22T09:45:42.899Z,28.66
2022-08-22T09:48:37.032Z,28.60
2022-08-22T09:51:32.246Z,28.53
2022-08-22T09:54:22.525Z,28.56
2022-08-22T09:57:09.675Z,28.58
2022-08-22T09:59:47.766Z,28.84
2022-08-22T10:02:31.229Z,28.64
2022-08-22T10:05:07.258Z,28.75
2022-08-22T10:07:58.226Z,28.96
2022-08-22T10:10:45.937Z,29.15
2022-08-22T10:13:28.693Z,29.46
2022-08-22T10:16:06.245Z,29.75
2022-08-22T10:18:52.741Z,29.91
2022-08-22T10:21:35.857Z,29.94
2022-08-22T10:24:24.606Z,29.82
2022-08-22T10:27:04.382Z,29.74
2022-08-22T10:29:53.449Z,29.77
2022-08-22T10:32:33.000Z,29.70
2022-08-22T10:35:16.617Z,29.75
2022-08-22T10:37:55.786Z,29.84
2022-08-22T10:40:31.102Z,29.75
2022-08-22T10:43:10.417Z,29.68
2022-08-22T10:45:45.570Z,29.43
2022-08-22T10:48:32.270Z,29.38
2022-08-22T10:51:22.306Z,29.25
2022-08-22T10:54:04.961Z,29.15
2022-08-22T10:56:40.726Z,29.09
2022-08-22T10:59:33.526Z,29.14
2022-08-22T11:02:18.712Z,29.20
2022-08-22T11:05:21.232Z,29.20
2022-08-22T11:08:03.932Z,29.21
2022-08-22T11:10:49.206Z,29.21
2022-08-22T11:13:30.715Z,29.17
2022-08-22T11:16:15.228Z,29.12
2022-08-22T11:19:15.397Z,29.05
2022-08-22T11:21:56.490Z,29.00
2022-08-22T11:25:05.073Z,29.06
2022-08-22T11:27:44.292Z,29.07
2022-08-22T11:30:18.724Z,29.10
2022-08-22T11:33:46.359Z,29.22
2022-08-22T11:36:39.586Z,29.26
2022-08-22T11:39:24.531Z,29.18
2022-08-22T11:42:06.274Z,29.14
2022-08-22T11:44:50.461Z,29.15
2022-08-22T11:47:26.764Z,29.18
2022-08-22T11:50:10.759Z,29.22
2022-08-22T11:53:09.864Z,29.32
2022-08-22T11:55:42.812Z,29.37
2022-08-22T11:58:29.226Z,29.52
2022-08-22T12:01:04.707Z,29.61
2022-08-22T12:03:58.699Z,29.74
2022-08-22T12:06:44.896Z,29.85
2022-08-22T12:09:35.665Z,29.96
2022-08-22T12:12:20.850Z,30.10
2022-08-22T12:15:00.004Z,30.20
2022-08-22T12:18:04.870Z,30.25
2022-08-22T12:20:52.449Z,30.17
2022-08-22T12:23:52.650Z,30.02
2022-08-22T12:26:31.469Z,29.84
2022-08-22T12:29:33.573Z,29.93
2022-08-22T12:32:45.804Z,29.90
2022-08-22T12:35:32.653Z,29.88
2022-08-22T12:38:28.844Z,29.90
2022-08-22T12:41:35.032Z,29.98
2022-08-22T12:44:22.491Z,29.97
2022-08-22T12:47:06.772Z,29.85
2022-08-22T12:57:36.500Z,29.78
2022-08-22T13:00:26.714Z,29.81
2022-08-22T13:02:56.993Z,29.88
2022-08-22T13:05:29.532Z,29.91
2022-08-22T13:08:04.622Z,29.80
2022-08-22T13:10:47.803Z,29.77
2022-08-22T13:13:36.962Z,29.89
2022-08-22T13:16:11.677Z,29.90
2022-08-22T13:18:55.030Z,30.04
2022-08-22T13:21:34.602Z,30.12
2022-08-22T13:24:10.481Z,30.15
2022-08-22T13:26:50.053Z,30.14
2022-08-22T13:29:27.339Z,30.19
2022-08-22T13:32:11.325Z,30.21
2022-08-22T13:34:45.962Z,30.20
2022-08-22T13:37:24.397Z,30.28
2022-08-22T13:39:59.763Z,30.25
2022-08-22T13:42:32.512Z,30.11
2022-08-22T13:45:11.960Z,30.08
2022-08-22T13:47:51.389Z,30.01
2022-08-22T13:50:24.249Z,29.97
2022-08-22T13:53:00.255Z,29.91
2022-08-22T13:55:38.063Z,30.03
2022-08-22T13:58:24.945Z,29.98
2022-08-22T14:01:25.426Z,29.96
2022-08-22T14:04:01.118Z,29.92
2022-08-22T14:06:43.744Z,29.86
2022-08-22T14:09:32.146Z,29.75
2022-08-22T14:12:12.151Z,29.65
2022-08-22T14:14:45.878Z,29.39
2022-08-22T14:17:21.498Z,29.54
2022-08-22T14:20:01.501Z,29.57
2022-08-22T14:22:35.987Z,29.44
2022-08-22T14:25:10.234Z,29.34
2022-08-22T14:27:58.639Z,29.32
2022-08-22T14:30:30.808Z,29.23
2022-08-22T14:33:22.781Z,29.15
2022-08-22T14:35:57.586Z,29.17
2022-08-22T14:38:35.825Z,29.20
2022-08-22T14:41:08.065Z,29.18
2022-08-22T14:43:52.243Z,29.27
2022-08-22T14:46:26.929Z,29.28
2022-08-22T14:49:38.287Z,29.37
2022-08-22T14:52:19.527Z,29.35
2022-08-22T14:54:51.020Z,29.30
2022-08-22T14:57:20.912Z,29.26
2022-08-22T14:59:53.428Z,29.19
2022-08-22T15:02:28.298Z,29.07
2022-08-22T15:05:01.208Z,28.87
2022-08-22T15:07:37.551Z,28.76
2022-08-22T15:10:20.773Z,28.65
2022-08-22T15:12:55.581Z,28.48
2022-08-22T15:15:49.723Z,28.44
2022-08-22T15:18:36.209Z,28.38
2022-08-22T15:21:10.066Z,28.24
2022-08-22T15:23:46.723Z,28.15
2022-08-22T15:26:25.053Z,28.09
2022-08-22T15:29:06.501Z,28.04
2022-08-22T15:31:43.460Z,27.90
2022-08-22T15:34:25.149Z,27.85
2022-08-22T15:37:08.340Z,27.83
2022-08-22T15:40:02.658Z,27.72
2022-08-22T15:42:36.462Z,27.62
2022-08-22T15:45:07.701Z,27.50
2022-08-22T15:47:39.218Z,27.66
2022-08-22T15:50:15.334Z,27.50
2022-08-22T15:53:21.152Z,27.46
2022-08-22T15:56:24.498Z,27.40
2022-08-22T15:59:11.137Z,27.28
2022-08-22T16:01:49.803Z,27.24
2022-08-22T16:04:35.473Z,27.17
2022-08-22T16:07:21.079Z,27.03
2022-08-22T16:09:53.521Z,26.93
2022-08-22T16:12:35.432Z,26.87
2022-08-22T16:15:09.243Z,26.75
2022-08-22T16:17:53.567Z,26.66
2022-08-22T16:20:55.606Z,26.60
2022-08-22T16:23:24.907Z,26.46
2022-08-22T16:26:15.141Z,26.40
2022-08-22T16:28:59.166Z,26.32
2022-08-22T16:31:32.582Z,26.21
2022-08-22T16:34:32.570Z,26.19
2022-08-22T16:37:47.631Z,26.11
2022-08-22T16:40:28.258Z,26.05
2022-08-22T16:43:28.995Z,26.02
2022-08-22T16:46:23.378Z,25.91
2022-08-22T16:49:03.220Z,25.88
2022-08-22T16:51:32.752Z,25.80
2022-08-22T16:54:11.889Z,25.75
2022-08-22T16:57:05.182Z,25.64
2022-08-22T16:59:54.373Z,25.59
2022-08-22T17:02:43.583Z,25.55
2022-08-22T17:05:46.682Z,25.47
2022-08-22T17:08:34.227Z,25.33
2022-08-22T17:11:53.607Z,25.22
2022-08-22T17:14:43.704Z,25.22
2022-08-22T17:17:26.788Z,25.06
2022-08-22T17:20:15.132Z,24.98
2022-08-22T17:22:57.911Z,24.88
2022-08-22T17:25:36.024Z,24.86
2022-08-22T17:28:17.213Z,24.87
2022-08-22T17:31:07.159Z,24.89
2022-08-22T17:34:13.899Z,24.88
2022-08-22T17:36:53.228Z,24.91
2022-08-22T17:39:51.746Z,24.85
2022-08-22T17:42:44.366Z,24.66
2022-08-22T17:45:27.710Z,24.86
2022-08-22T17:48:07.599Z,24.84
2022-08-22T17:50:42.185Z,24.83
2022-08-22T17:53:18.345Z,24.81
2022-08-22T17:56:02.600Z,24.82
2022-08-22T17:58:43.591Z,24.57
2022-08-22T18:01:15.380Z,24.83
2022-08-22T18:03:52.532Z,24.67
2022-08-22T18:06:26.677Z,24.57
2022-08-22T18:09:17.056Z,24.57
2022-08-22T18:11:56.866Z,24.54
2022-08-22T18:14:34.900Z,24.47
2022-08-22T18:17:19.186Z,24.36
2022-08-22T18:20:07.754Z,24.24
2022-08-22T18:22:45.987Z,23.99
2022-08-22T18:25:34.771Z,23.91
2022-08-22T18:28:11.984Z,23.80
2022-08-22T18:30:55.091Z,23.79
2022-08-22T18:33:32.903Z,23.81
2022-08-22T18:36:15.826Z,23.78
2022-08-22T18:38:55.143Z,23.74
2022-08-22T18:41:37.937Z,23.88
2022-08-22T18:44:17.015Z,23.77
2022-08-22T18:46:51.658Z,23.79
2022-08-22T18:49:53.679Z,23.84
2022-08-22T18:52:41.441Z,23.78
2022-08-22T18:55:31.636Z,23.78
2022-08-22T18:58:32.603Z,23.71
2022-08-22T19:01:42.125Z,23.69
2022-08-22T19:04:43.118Z,23.69
2022-08-22T19:07:28.020Z,23.64
2022-08-22T19:10:23.094Z,23.65
2022-08-22T19:13:14.322Z,23.55
2022-08-22T19:16:04.150Z,23.46
2022-08-22T19:18:46.453Z,23.41
2022-08-22T19:21:47.268Z,23.33
2022-08-22T19:24:37.392Z,23.24
2022-08-22T19:27:31.520Z,23.15
2022-08-22T19:30:04.411Z,23.18
2022-08-22T19:33:04.111Z,23.19
2022-08-22T19:35:47.378Z,23.08
2022-08-22T19:38:53.088Z,23.04
2022-08-22T19:42:00.753Z,22.97
2022-08-22T19:44:37.239Z,23.08
2022-08-22T19:47:17.666Z,23.19
2022-08-22T19:50:05.683Z,23.27
2022-08-22T19:53:10.385Z,23.27
2022-08-22T19:55:54.813Z,23.29
2022-08-22T19:58:40.381Z,23.31
2022-08-22T20:01:43.176Z,23.34
2022-08-22T20:04:37.743Z,23.33
2022-08-22T20:07:19.465Z,23.30
2022-08-22T20:09:59.037Z,23.24
2022-08-22T20:12:50.718Z,23.20
2022-08-22T20:15:22.034Z,23.28
2022-08-22T20:21:02.057Z,23.06
2022-08-22T20:23:34.598Z,22.88
2022-08-22T20:26:04.686Z,22.85
2022-08-22T20:28:52.012Z,22.79
2022-08-22T20:31:24.123Z,22.71
2022-08-22T20:33:59.321Z,22.51
2022-08-22T20:39:11.354Z,22.48
2022-08-22T20:41:45.189Z,22.38
2022-08-22T20:46:57.450Z,22.19
2022-08-22T20:49:31.419Z,22.05
2022-08-22T20:52:05.960Z,21.95
2022-08-22T20:54:39.400Z,22.00
2022-08-22T20:57:16.697Z,21.96
2022-08-22T20:59:54.877Z,21.87
2022-08-22T21:02:28.711Z,21.90
2022-08-22T21:05:03.277Z,22.03
2022-08-22T21:07:35.607Z,22.11
2022-08-22T21:10:28.342Z,22.19
2022-08-22T21:13:08.622Z,22.15
2022-08-22T21:15:40.469Z,22.10
2022-08-22T21:18:11.816Z,21.99
2022-08-22T21:20:41.669Z,21.99
2022-08-22T21:23:15.589Z,22.05
2022-08-22T21:25:59.146Z,22.10
2022-08-22T21:28:31.318Z,22.05
2022-08-22T21:33:44.536Z,22.11
2022-08-22T21:36:22.347Z,22.10
2022-08-22T21:38:54.829Z,22.09
2022-08-22T21:41:33.539Z,21.98
2022-08-22T21:44:40.018Z,21.98
2022-08-22T21:47:30.736Z,21.98
2022-08-22T21:50:12.531Z,21.99
2022-08-22T21:52:44.939Z,21.98
2022-08-22T21:55:25.989Z,21.94
2022-08-22T21:58:22.019Z,21.85
2022-08-22T22:01:30.167Z,21.81
2022-08-22T22:04:00.692Z,21.73
2022-08-22T22:06:29.914Z,21.61
2022-08-22T22:08:59.150Z,21.68
2022-08-22T22:11:28.407Z,21.52
2022-08-22T22:14:04.671Z,21.59
2022-08-22T22:16:34.096Z,21.56
2022-08-22T22:19:03.376Z,21.53
2022-08-22T22:21:40.277Z,21.53
2022-08-22T22:24:14.734Z,21.50
2022-08-22T22:26:44.176Z,21.37
2022-08-22T22:29:15.705Z,21.40
2022-08-22T22:31:45.334Z,21.28
2022-08-22T22:34:19.705Z,21.26
2022-08-22T22:36:49.299Z,21.18
2022-08-22T22:39:18.478Z,21.14
2022-08-22T22:41:48.557Z,20.99
2022-08-22T22:44:25.328Z,20.93
2022-08-22T22:46:58.570Z,20.77
2022-08-22T22:49:36.535Z,20.76
2022-08-22T22:52:07.111Z,20.54
2022-08-22T22:54:46.743Z,20.54
2022-08-22T22:57:25.583Z,20.43
2022-08-22T23:00:02.185Z,20.32
2022-08-22T23:02:33.424Z,20.25
2022-08-22T23:05:02.594Z,20.22
2022-08-22T23:07:33.803Z,20.23
2022-08-22T23:10:12.330Z,20.16
2022-08-22T23:12:41.988Z,20.13
2022-08-22T23:15:14.345Z,20.05
2022-08-22T23:17:43.628Z,20.03
2022-08-22T23:20:13.127Z,19.96
2022-08-22T23:22:51.188Z,20.01
2022-08-22T23:25:20.637Z,20.04
2022-08-22T23:27:57.547Z,20.12
2022-08-22T23:30:28.629Z,20.06
2022-08-22T23:33:03.066Z,20.07
2022-08-22T23:35:32.353Z,20.03
2022-08-22T23:38:01.858Z,19.97
2022-08-22T23:40:31.297Z,19.95
2022-08-22T23:43:01.008Z,19.91
2022-08-22T23:45:32.465Z,19.90
2022-08-22T23:48:01.775Z,19.88
2022-08-22T23:50:31.111Z,19.82
2022-08-22T23:53:00.458Z,19.87
2022-08-22T23:55:29.789Z,19.83
2022-08-22T23:57:59.071Z,19.79
